Time;durP1;ratioP1;P1;durP2;ratioP2;P2;SDS_P1;SDS_P2;PMS_P1;PMS_P2;Temp;Humidity;BMP_temperature;BMP_pressure;BME280_temperature;BME280_humidity;BME280_pressure;Samples;Min_cycle;Max_cycle;Signal;HPM_P1;HPM_P2
2021/10/25 04:32:53;;;;;;;12.30;9.23;;;1.70;99.90;;;;;;4980029;23;20511;-73
2021/10/25 04:35:18;;;;;;;14.30;10.33;;;1.70;99.90;;;;;;4972955;28;20501;-73
2021/10/25 04:37:43;;;;;;;14.23;9.00;;;1.60;99.90;;;;;;4973671;28;20210;-73
2021/10/25 04:40:10;;;;;;;14.17;9.70;;;1.70;99.90;;;;;;4973479;28;20178;-73
2021/10/25 04:42:36;;;;;;;14.13;9.30;;;1.60;99.90;;;;;;4973595;28;20219;-73
2021/10/25 04:45:02;;;;;;;10.90;8.97;;;1.60;99.90;;;;;;4974068;28;20448;-73
2021/10/25 04:47:28;;;;;;;13.97;9.63;;;1.60;99.90;;;;;;4973531;28;20199;-73
2021/10/25 04:49:53;;;;;;;17.13;11.10;;;1.60;99.90;;;;;;4973887;28;20391;-73
2021/10/25 04:52:19;;;;;;;13.20;10.20;;;1.70;99.90;;;;;;4973195;28;20207;-73
2021/10/25 04:54:44;;;;;;;14.20;10.50;;;1.70;99.90;;;;;;4973854;28;20550;-73
2021/10/25 04:57:10;;;;;;;13.60;9.87;;;1.80;99.90;;;;;;4973483;28;20707;-73
2021/10/25 04:59:36;;;;;;;13.17;9.70;;;1.80;99.90;;;;;;4973702;28;20255;-74
2021/10/25 05:02:02;;;;;;;17.97;11.30;;;1.80;99.90;;;;;;4973216;28;20275;-73
2021/10/25 05:04:28;;;;;;;18.20;11.63;;;1.80;99.90;;;;;;4973257;28;20493;-73
2021/10/25 05:06:54;;;;;;;19.63;11.63;;;1.80;99.90;;;;;;4973536;28;20172;-73
2021/10/25 05:09:19;;;;;;;25.57;12.23;;;1.80;99.90;;;;;;4973282;28;20602;-73
2021/10/25 05:11:45;;;;;;;15.70;11.00;;;1.80;99.90;;;;;;4973419;28;20196;-73
2021/10/25 05:14:11;;;;;;;22.77;10.80;;;1.90;99.90;;;;;;4973060;28;20243;-73
2021/10/25 05:16:36;;;;;;;15.37;10.20;;;1.90;99.90;;;;;;4973289;28;20216;-74
2021/10/25 05:19:02;;;;;;;15.53;10.60;;;1.90;99.90;;;;;;4973324;28;20245;-74
2021/10/25 05:21:27;;;;;;;14.90;10.57;;;1.90;99.90;;;;;;4973062;28;20198;-74
2021/10/25 05:23:53;;;;;;;22.63;12.23;;;1.90;99.90;;;;;;4973025;28;20231;-74
2021/10/25 05:26:20;;;;;;;20.90;11.93;;;1.90;99.90;;;;;;4972838;28;20191;-74
2021/10/25 05:28:45;;;;;;;17.50;10.90;;;1.90;99.90;;;;;;4973283;28;20252;-73
2021/10/25 05:31:11;;;;;;;16.80;10.70;;;2.00;99.90;;;;;;4971401;28;20937;-73
2021/10/25 05:33:39;;;;;;;16.50;10.70;;;2.00;99.90;;;;;;4972906;28;20176;-74
2021/10/25 05:36:05;;;;;;;18.97;10.63;;;2.00;99.90;;;;;;4972947;28;20602;-74
2021/10/25 05:38:31;;;;;;;13.17;10.87;;;1.90;99.90;;;;;;4972899;28;20428;-73
2021/10/25 05:40:56;;;;;;;14.30;9.90;;;2.00;99.90;;;;;;4972881;28;20960;-74
2021/10/25 05:43:22;;;;;;;17.80;11.53;;;2.00;99.90;;;;;;4972596;28;20622;-73
2021/10/25 05:45:48;;;;;;;11.43;10.23;;;2.00;99.90;;;;;;4972762;28;20171;-74
2021/10/25 05:48:14;;;;;;;24.07;11.63;;;2.00;99.90;;;;;;4972860;28;20203;-75
2021/10/25 05:50:40;;;;;;;15.60;8.93;;;2.00;99.90;;;;;;4972692;28;20200;-73
2021/10/25 05:53:06;;;;;;;14.00;9.70;;;2.10;99.90;;;;;;4972656;28;20383;-72
2021/10/25 05:55:32;;;;;;;13.10;9.90;;;2.10;99.90;;;;;;4972685;28;20378;-72
2021/10/25 05:57:57;;;;;;;13.57;10.10;;;2.10;99.90;;;;;;4972714;28;20497;-72
2021/10/25 06:00:30;;;;;;;16.57;10.50;;;2.10;99.90;;;;;;4972444;28;20540;-71
2021/10/25 06:02:57;;;;;;;16.83;10.87;;;2.10;99.90;;;;;;4962391;28;20184;-71
2021/10/25 06:05:25;;;;;;;16.43;10.60;;;2.10;99.90;;;;;;4964247;28;20482;-72
2021/10/25 06:07:52;;;;;;;17.43;11.33;;;2.20;99.90;;;;;;4969641;28;20502;-72
2021/10/25 06:10:19;;;;;;;16.27;10.40;;;2.20;99.90;;;;;;4972406;28;20419;-71
2021/10/25 06:12:49;;;;;;;17.33;10.30;;;2.20;99.90;;;;;;4972224;28;20439;-73
2021/10/25 06:15:25;;;;;;;17.83;11.43;;;2.30;99.90;;;;;;4972669;28;20394;-72
2021/10/25 06:20:17;;;;;;;18.93;9.90;;;2.30;99.90;;;;;;4972366;28;20545;-71
2021/10/25 06:22:43;;;;;;;13.60;9.73;;;2.30;99.90;;;;;;4972066;28;20222;-71
2021/10/25 06:25:12;;;;;;;19.67;9.53;;;2.40;99.90;;;;;;4972520;28;20940;-72
2021/10/25 06:27:37;;;;;;;12.10;10.00;;;2.30;99.90;;;;;;4972888;28;20541;-74
2021/10/25 06:30:04;;;;;;;17.97;9.63;;;2.40;99.90;;;;;;4971077;28;20424;-72
2021/10/25 06:32:30;;;;;;;13.00;9.43;;;2.40;99.90;;;;;;4971114;28;20258;-73
2021/10/25 06:34:57;;;;;;;11.17;9.00;;;2.40;99.90;;;;;;4972317;28;20937;-72
2021/10/25 06:37:27;;;;;;;12.70;9.03;;;2.50;99.90;;;;;;4972456;28;20200;-72
2021/10/25 06:39:54;;;;;;;13.50;9.27;;;2.60;99.90;;;;;;4976102;28;20422;-72
2021/10/25 06:42:20;;;;;;;9.60;8.27;;;2.60;99.90;;;;;;4975496;28;20795;-72
2021/10/25 06:44:51;;;;;;;10.10;7.70;;;2.70;99.90;;;;;;4976026;28;20391;-73
2021/10/25 06:47:18;;;;;;;11.80;8.33;;;2.70;99.90;;;;;;4975983;28;20694;-72
2021/10/25 06:49:43;;;;;;;13.40;8.83;;;2.70;99.90;;;;;;4975895;28;20426;-73
2021/10/25 06:52:09;;;;;;;14.67;9.20;;;2.80;99.90;;;;;;4975655;28;20440;-73
2021/10/25 06:54:34;;;;;;;19.43;9.40;;;2.80;99.90;;;;;;4975945;28;20267;-73
2021/10/25 06:57:00;;;;;;;18.30;10.10;;;2.90;99.90;;;;;;4975672;28;20217;-74
2021/10/25 06:59:25;;;;;;;18.67;10.80;;;3.00;99.90;;;;;;4975519;28;20672;-74
2021/10/25 07:01:51;;;;;;;14.20;8.53;;;3.60;99.90;;;;;;4975614;28;20201;-73
2021/10/25 07:04:17;;;;;;;11.50;8.33;;;4.30;99.90;;;;;;4975340;28;20218;-72
2021/10/25 07:06:42;;;;;;;10.53;7.30;;;4.60;99.90;;;;;;4975472;28;20179;-72
2021/10/25 07:09:09;;;;;;;10.67;7.70;;;4.70;99.90;;;;;;4975478;28;20209;-72
2021/10/25 07:11:35;;;;;;;10.67;8.97;;;4.80;99.90;;;;;;4975235;28;20198;-72
2021/10/25 07:14:01;;;;;;;13.37;8.57;;;5.10;99.90;;;;;;4975394;28;20505;-71
2021/10/25 07:16:41;;;;;;;14.73;8.77;;;5.50;99.90;;;;;;4975247;28;20467;-72
2021/10/25 08:05:01;;;;;;;15.67;8.67;;;10.80;99.90;;;;;;4974945;28;20175;-69
2021/10/25 08:07:54;;;;;;;12.80;9.37;;;11.00;99.90;;;;;;4974448;28;20411;-70
2021/10/25 08:10:25;;;;;;;14.57;9.27;;;11.10;99.90;;;;;;4974586;28;20772;-70
2021/10/25 08:12:59;;;;;;;17.83;9.17;;;11.20;99.90;;;;;;4973486;28;20443;-70
2021/10/25 08:15:38;;;;;;;14.97;10.17;;;11.40;99.90;;;;;;4974403;28;20522;-70
2021/10/25 08:18:08;;;;;;;14.97;9.80;;;11.30;99.90;;;;;;4974390;28;20957;-70
2021/10/25 08:20:33;;;;;;;14.67;9.57;;;11.00;99.90;;;;;;4974234;28;20419;-69
2021/10/25 08:22:59;;;;;;;16.00;9.93;;;10.80;99.90;;;;;;4973591;28;20417;-70
2021/10/25 08:25:24;;;;;;;14.53;9.90;;;10.70;99.90;;;;;;4974269;28;20666;-70
2021/10/25 08:27:50;;;;;;;14.17;9.17;;;10.70;99.90;;;;;;4974177;28;20194;-70
2021/10/25 08:30:19;;;;;;;19.77;9.97;;;10.40;99.90;;;;;;4973858;28;20271;-70
2021/10/25 08:35:51;;;;;;;12.33;9.80;;;10.30;99.90;;;;;;4974206;28;20795;-70
2021/10/25 08:40:58;;;;;;;17.00;10.80;;;10.00;99.90;;;;;;4973685;28;20985;-70
2021/10/25 08:43:23;;;;;;;19.43;10.70;;;9.90;99.90;;;;;;4973051;28;20411;-69
2021/10/25 08:45:52;;;;;;;12.47;9.30;;;9.90;99.90;;;;;;4973827;28;20258;-71
2021/10/25 08:48:20;;;;;;;13.83;9.30;;;10.00;99.90;;;;;;4973893;28;20721;-70
2021/10/25 08:50:45;;;;;;;12.80;9.53;;;10.10;99.90;;;;;;4973686;28;20413;-70
2021/10/25 08:53:11;;;;;;;15.33;9.17;;;10.10;99.90;;;;;;4970509;28;21233;-71
2021/10/25 08:55:37;;;;;;;12.80;9.20;;;10.30;99.90;;;;;;4973601;28;20200;-70
2021/10/25 08:58:05;;;;;;;13.40;9.33;;;10.20;99.90;;;;;;4973570;28;20489;-70
2021/10/25 09:00:39;;;;;;;18.53;9.80;;;10.30;99.90;;;;;;4972790;28;20918;-70
2021/10/25 09:03:06;;;;;;;12.07;10.43;;;10.40;99.90;;;;;;4972985;28;20431;-70
2021/10/25 09:05:32;;;;;;;17.10;10.30;;;10.60;99.90;;;;;;4973532;28;20788;-69
2021/10/25 09:08:04;;;;;;;18.07;10.40;;;10.70;99.90;;;;;;4973474;28;20427;-69
2021/10/25 09:10:43;;;;;;;18.67;9.97;;;10.80;99.90;;;;;;4973241;28;20422;-70
2021/10/25 09:13:17;;;;;;;12.00;9.37;;;10.80;99.90;;;;;;4972882;28;20419;-70
2021/10/25 09:15:47;;;;;;;15.37;9.80;;;11.00;99.90;;;;;;4973395;28;20959;-70
2021/10/25 09:18:21;;;;;;;11.70;10.10;;;11.20;99.90;;;;;;4973113;28;20893;-69
2021/10/25 09:20:58;;;;;;;16.33;9.30;;;11.30;99.90;;;;;;4973306;28;20537;-71
2021/10/25 09:23:43;;;;;;;11.80;8.73;;;11.60;99.90;;;;;;4972556;28;20411;-70
2021/10/25 09:26:21;;;;;;;15.50;8.97;;;11.90;99.90;;;;;;4973219;28;20790;-70
2021/10/25 09:28:51;;;;;;;10.90;9.60;;;12.20;99.90;;;;;;4971991;28;20822;-70
2021/10/25 09:31:24;;;;;;;13.30;9.37;;;12.40;99.90;;;;;;4972458;28;20946;-70
2021/10/25 09:34:05;;;;;;;13.27;8.87;;;12.60;99.90;;;;;;4972559;28;20415;-71
2021/10/25 09:36:38;;;;;;;14.60;9.00;;;13.00;99.90;;;;;;4971609;28;20458;-70
2021/10/25 09:39:18;;;;;;;15.23;10.13;;;13.30;99.90;;;;;;4972992;28;20449;-70
2021/10/25 09:49:58;;;;;;;14.40;9.20;;;14.60;99.90;;;;;;4973090;28;20790;-71
2021/10/25 09:52:32;;;;;;;14.83;10.10;;;14.80;99.90;;;;;;4971837;28;20480;-71
2021/10/25 09:54:59;;;;;;;16.20;10.00;;;15.00;99.90;;;;;;4971396;28;20466;-71
2021/10/25 09:57:37;;;;;;;16.40;9.30;;;15.20;99.90;;;;;;4970723;28;20597;-71
2021/10/25 10:00:04;;;;;;;10.70;8.47;;;15.50;99.90;;;;;;4972201;28;20424;-70
2021/10/25 10:02:31;;;;;;;11.50;8.20;;;15.90;99.90;;;;;;4971748;28;20446;-70
2021/10/25 10:05:00;;;;;;;11.67;7.50;;;16.20;99.90;;;;;;4972184;28;20432;-71
2021/10/25 10:07:26;;;;;;;14.33;8.27;;;16.10;99.90;;;;;;4972573;28;20419;-71
2021/10/25 10:09:53;;;;;;;17.63;8.77;;;15.60;99.90;;;;;;4972748;28;20769;-71
2021/10/25 10:12:21;;;;;;;8.60;7.73;;;15.50;99.90;;;;;;4972507;28;20207;-71
2021/10/25 10:14:51;;;;;;;16.00;8.30;;;15.60;99.90;;;;;;4976878;28;20411;-71
2021/10/25 10:17:19;;;;;;;13.10;7.77;;;15.80;99.90;;;;;;4976597;28;20537;-71
2021/10/25 10:19:48;;;;;;;11.47;7.83;;;16.30;99.90;;;;;;4975534;28;20416;-71
2021/10/25 10:22:16;;;;;;;11.87;8.27;;;16.50;99.90;;;;;;4974909;28;20449;-71
2021/10/25 10:24:45;;;;;;;10.93;7.90;;;16.70;99.90;;;;;;4975695;28;20510;-72
2021/10/25 10:27:13;;;;;;;8.47;7.57;;;16.90;99.90;;;;;;4969626;28;20423;-71
2021/10/25 10:29:41;;;;;;;11.07;7.60;;;16.90;99.90;;;;;;4976117;28;20449;-71
2021/10/25 10:32:13;;;;;;;12.80;9.13;;;16.70;99.90;;;;;;4971705;28;20459;-71
2021/10/25 10:34:44;;;;;;;10.67;8.30;;;16.60;99.90;;;;;;4972361;28;20438;-72
2021/10/25 10:37:21;;;;;;;11.13;8.80;;;16.60;99.90;;;;;;4970967;28;20495;-71
2021/10/25 10:40:06;;;;;;;11.57;7.40;;;16.60;99.90;;;;;;4972596;28;20423;-72
2021/10/25 10:42:36;;;;;;;14.27;8.93;;;16.60;99.90;;;;;;4971048;28;20448;-71
2021/10/25 10:45:08;;;;;;;9.80;8.23;;;16.50;99.90;;;;;;4972820;28;20423;-71
2021/10/25 10:47:50;;;;;;;16.33;8.27;;;16.40;99.90;;;;;;4967285;28;20184;-72
2021/10/25 10:50:22;;;;;;;11.07;7.53;;;16.60;99.90;;;;;;4968414;28;20424;-70
2021/10/25 10:53:07;;;;;;;15.07;8.27;;;16.60;99.90;;;;;;4972385;28;20435;-71
2021/10/25 10:55:38;;;;;;;16.57;7.20;;;16.80;99.90;;;;;;4963039;28;20448;-71
2021/10/25 11:00:44;;;;;;;14.30;7.97;;;17.50;99.90;;;;;;4975264;28;20478;-71
2021/10/25 11:03:21;;;;;;;11.93;7.53;;;17.70;99.90;;;;;;4973913;28;20481;-71
2021/10/25 11:06:17;;;;;;;18.10;7.80;;;17.40;99.90;;;;;;4975636;28;20410;-71
2021/10/25 11:08:49;;;;;;;9.53;7.30;;;17.10;99.90;;;;;;4974307;28;20430;-71
2021/10/25 11:11:19;;;;;;;11.13;8.23;;;16.90;99.90;;;;;;4975403;28;20986;-70
2021/10/25 11:13:56;;;;;;;13.97;7.33;;;16.70;99.90;;;;;;4975360;28;20411;-71
2021/10/25 11:19:09;;;;;;;15.63;7.87;;;17.00;99.90;;;;;;4975607;28;20408;-72
2021/10/25 11:21:36;;;;;;;13.53;7.30;;;17.20;99.90;;;;;;4973808;28;20547;-71
2021/10/25 11:24:15;;;;;;;10.83;7.93;;;17.00;99.90;;;;;;4974664;28;20420;-71
2021/10/25 11:26:54;;;;;;;8.50;7.33;;;17.00;99.90;;;;;;4975327;28;20411;-70
2021/10/25 11:29:28;;;;;;;10.53;7.60;;;17.00;99.90;;;;;;4975015;28;20411;-70
2021/10/25 11:32:09;;;;;;;19.67;6.57;;;17.00;99.90;;;;;;4974858;28;20461;-72
2021/10/25 11:34:39;;;;;;;9.37;7.03;;;17.00;99.90;;;;;;4971326;28;20928;-70
2021/10/25 11:37:23;;;;;;;8.00;7.10;;;17.10;99.90;;;;;;4974734;28;20466;-72
2021/10/25 11:40:01;;;;;;;12.20;7.43;;;17.00;99.90;;;;;;4974631;28;20411;-71
2021/10/25 11:42:41;;;;;;;12.57;6.10;;;17.10;99.90;;;;;;4974190;28;20440;-71
2021/10/25 11:45:15;;;;;;;11.27;6.30;;;16.90;99.90;;;;;;4974910;28;20908;-70
2021/10/25 11:47:43;;;;;;;9.20;7.30;;;16.90;99.90;;;;;;4974743;28;20415;-71
2021/10/25 11:50:15;;;;;;;11.83;8.10;;;17.00;99.90;;;;;;4972723;28;20436;-72
2021/10/25 11:52:46;;;;;;;9.07;6.93;;;17.10;99.90;;;;;;4972568;28;20490;-71
2021/10/25 11:55:15;;;;;;;11.77;7.90;;;17.30;99.90;;;;;;4972904;28;20426;-71
2021/10/25 11:57:51;;;;;;;10.60;6.87;;;17.30;99.90;;;;;;4972868;28;20960;-71
2021/10/25 12:00:19;;;;;;;11.47;7.70;;;17.10;99.90;;;;;;4972730;28;20430;-71
2021/10/25 12:02:46;;;;;;;9.37;7.50;;;16.90;99.90;;;;;;4972424;28;20474;-71
2021/10/25 12:05:17;;;;;;;11.33;6.17;;;16.90;99.90;;;;;;4971371;28;20477;-70
2021/10/25 12:07:47;;;;;;;8.80;7.30;;;17.00;99.90;;;;;;4974451;28;20490;-71
2021/10/25 12:10:13;;;;;;;9.63;7.17;;;16.90;99.90;;;;;;4972131;28;20507;-72
2021/10/25 12:12:38;;;;;;;7.67;6.60;;;16.80;99.90;;;;;;4973835;28;20590;-70
2021/10/25 12:15:05;;;;;;;15.23;6.60;;;16.80;99.90;;;;;;4974190;28;20176;-71
2021/10/25 12:17:36;;;;;;;10.23;6.47;;;16.70;99.90;;;;;;4974180;28;20211;-70
2021/10/25 12:20:06;;;;;;;11.77;6.43;;;16.70;99.90;;;;;;4974196;28;20429;-71
2021/10/25 12:22:32;;;;;;;10.67;5.80;;;16.80;99.90;;;;;;4973162;28;20583;-71
2021/10/25 12:24:57;;;;;;;8.43;6.70;;;17.00;99.90;;;;;;4973851;28;20494;-71
2021/10/25 12:27:28;;;;;;;6.20;5.70;;;17.00;99.90;;;;;;4974075;28;20176;-72
2021/10/25 12:30:05;;;;;;;7.73;5.70;;;17.00;99.90;;;;;;4972129;28;20183;-72
2021/10/25 12:32:32;;;;;;;8.43;6.00;;;17.00;99.90;;;;;;4973410;28;20490;-70
2021/10/25 12:34:58;;;;;;;6.93;5.20;;;16.90;99.90;;;;;;4973499;28;20420;-70
2021/10/25 12:37:27;;;;;;;5.87;5.27;;;17.00;99.90;;;;;;4970766;28;20455;-72
2021/10/25 12:39:55;;;;;;;9.20;4.73;;;17.00;99.90;;;;;;4973757;28;20418;-72
2021/10/25 12:42:21;;;;;;;7.87;5.10;;;16.90;99.90;;;;;;4973092;28;20435;-71
2021/10/25 12:44:51;;;;;;;7.60;6.17;;;16.90;99.90;;;;;;4973857;28;20415;-71
2021/10/25 12:47:19;;;;;;;7.00;5.37;;;16.70;99.90;;;;;;4973671;28;20451;-71
2021/10/25 12:49:57;;;;;;;7.97;5.40;;;16.60;99.90;;;;;;4973610;28;20431;-71
2021/10/25 12:52:28;;;;;;;6.30;4.30;;;16.60;99.90;;;;;;4972954;28;20431;-71
2021/10/25 12:55:00;;;;;;;11.80;5.37;;;16.70;99.90;;;;;;4973640;28;20407;-70
2021/10/25 12:57:31;;;;;;;9.40;4.83;;;17.00;99.90;;;;;;4973451;28;20475;-71
2021/10/25 13:00:09;;;;;;;9.37;4.93;;;17.20;99.90;;;;;;4973567;28;20502;-71
2021/10/25 13:02:52;;;;;;;9.50;5.00;;;17.30;99.90;;;;;;4972995;28;20435;-70
2021/10/25 13:05:32;;;;;;;12.87;4.50;;;17.40;99.90;;;;;;4973488;28;20779;-71
2021/10/25 13:08:01;;;;;;;6.90;5.03;;;17.40;99.90;;;;;;4973254;28;20419;-71
2021/10/25 13:10:29;;;;;;;8.20;4.53;;;17.50;99.90;;;;;;4972838;28;20526;-68
2021/10/25 13:12:57;;;;;;;6.03;4.73;;;17.50;99.90;;;;;;4972622;28;20783;-71
2021/10/25 13:15:24;;;;;;;7.83;5.70;;;17.50;99.90;;;;;;4973193;28;20412;-70
2021/10/25 13:17:51;;;;;;;11.80;4.30;;;17.50;99.90;;;;;;4972941;28;20506;-71
2021/10/25 13:20:20;;;;;;;9.07;4.30;;;17.50;99.90;;;;;;4973000;28;20415;-72
2021/10/25 13:22:45;;;;;;;6.47;4.60;;;17.40;99.90;;;;;;4972625;28;20458;-70
2021/10/25 13:25:12;;;;;;;16.13;5.07;;;17.40;99.90;;;;;;4972329;28;20474;-71
2021/10/25 13:27:38;;;;;;;4.40;4.00;;;17.30;99.90;;;;;;4973136;28;20168;-71
2021/10/25 13:30:06;;;;;;;7.37;4.47;;;17.30;99.90;;;;;;4971384;28;20427;-71
2021/10/25 13:32:32;;;;;;;4.70;4.30;;;17.20;99.90;;;;;;4972251;28;20462;-71
2021/10/25 13:34:57;;;;;;;5.63;4.10;;;17.10;99.90;;;;;;4971118;28;20514;-71
2021/10/25 13:37:24;;;;;;;15.57;5.33;;;17.00;99.90;;;;;;4972434;28;20455;-71
2021/10/25 13:39:49;;;;;;;13.57;4.73;;;17.00;99.90;;;;;;4972789;28;20275;-70
2021/10/25 13:42:15;;;;;;;10.37;4.67;;;17.00;99.90;;;;;;4971468;28;20522;-71
2021/10/25 13:44:42;;;;;;;15.03;5.80;;;16.90;99.90;;;;;;4969803;28;20207;-71
2021/10/25 13:47:08;;;;;;;10.60;4.57;;;16.90;99.90;;;;;;4972439;28;20258;-72
2021/10/25 13:49:34;;;;;;;8.73;4.07;;;16.80;99.90;;;;;;4971439;28;20932;-72
2021/10/25 13:51:59;;;;;;;4.10;3.80;;;16.80;99.90;;;;;;4972267;28;20438;-68
2021/10/25 13:54:25;;;;;;;9.43;3.50;;;16.80;99.90;;;;;;4972355;28;20180;-72
2021/10/25 13:56:51;;;;;;;6.73;3.53;;;16.80;99.90;;;;;;4972644;28;20215;-71
2021/10/25 13:59:17;;;;;;;10.63;4.13;;;16.80;99.90;;;;;;4972563;28;20202;-71
2021/10/25 14:01:42;;;;;;;8.63;3.77;;;16.80;99.90;;;;;;4972371;28;20463;-72
2021/10/25 14:04:13;;;;;;;8.07;3.80;;;16.80;99.90;;;;;;4972293;28;20225;-70
2021/10/25 14:06:38;;;;;;;7.27;4.53;;;16.90;99.90;;;;;;4972605;28;20548;-72
2021/10/25 14:09:04;;;;;;;6.67;3.50;;;16.90;99.90;;;;;;4970902;28;20416;-72
2021/10/25 14:11:35;;;;;;;6.53;4.20;;;16.90;99.90;;;;;;4972080;28;20194;-72
2021/10/25 14:14:14;;;;;;;11.30;4.03;;;16.90;99.90;;;;;;4972091;28;20514;-71
2021/10/25 14:16:42;;;;;;;6.43;3.90;;;16.90;99.90;;;;;;4972166;28;20450;-71
2021/10/25 14:19:08;;;;;;;9.43;3.70;;;16.90;99.90;;;;;;4972193;28;20411;-72
2021/10/25 14:21:35;;;;;;;9.07;4.03;;;16.80;99.90;;;;;;4971227;28;20431;-72
2021/10/25 14:24:03;;;;;;;6.13;3.40;;;16.80;99.90;;;;;;4970920;28;20411;-71
2021/10/25 14:26:28;;;;;;;7.67;3.50;;;16.80;99.90;;;;;;4970552;28;20439;-70
2021/10/25 14:28:54;;;;;;;6.10;4.40;;;16.70;99.90;;;;;;4971406;28;20424;-72
2021/10/25 14:31:20;;;;;;;8.20;4.63;;;16.60;99.90;;;;;;4971607;28;20306;-71
2021/10/25 14:33:45;;;;;;;9.27;4.23;;;16.50;99.90;;;;;;4971890;28;20172;-71
2021/10/25 14:36:12;;;;;;;10.47;3.60;;;16.40;99.90;;;;;;4971906;28;20180;-71
2021/10/25 14:39:17;;;;;;;6.87;4.43;;;16.30;99.90;;;;;;4972009;28;20168;-71
2021/10/25 14:44:23;;;;;;;6.90;4.10;;;16.10;99.90;;;;;;4971959;28;20415;-72
2021/10/25 14:57:25;;;;;;;10.67;4.53;;;15.70;99.90;;;;;;4970159;28;20510;-72
2021/10/25 14:59:52;;;;;;;7.20;3.87;;;15.60;99.90;;;;;;4971945;28;20415;-73
2021/10/25 15:02:19;;;;;;;10.73;5.60;;;15.40;99.90;;;;;;4971925;28;20435;-71
2021/10/25 15:04:46;;;;;;;6.87;4.70;;;15.30;99.90;;;;;;4975426;28;20852;-72
2021/10/25 15:07:19;;;;;;;6.20;4.27;;;15.10;99.90;;;;;;4971236;28;20427;-73
2021/10/25 15:09:47;;;;;;;8.47;4.67;;;15.00;99.90;;;;;;4974337;28;20430;-72
2021/10/25 15:12:12;;;;;;;7.63;4.07;;;14.90;99.90;;;;;;4974177;28;20438;-73
2021/10/25 15:14:41;;;;;;;6.30;4.47;;;14.80;99.90;;;;;;4975481;28;20492;-71
2021/10/25 15:17:07;;;;;;;5.60;3.93;;;14.70;99.90;;;;;;4975350;28;20200;-71
2021/10/25 15:19:36;;;;;;;9.07;5.20;;;14.60;99.90;;;;;;4975121;28;20917;-71
2021/10/25 15:22:09;;;;;;;7.23;4.90;;;14.50;99.90;;;;;;4974955;28;20509;-70
2021/10/25 15:24:41;;;;;;;4.70;4.30;;;14.50;99.90;;;;;;4973908;28;20423;-70
2021/10/25 15:27:14;;;;;;;8.53;5.20;;;14.40;99.90;;;;;;4975320;28;20416;-69
2021/10/25 15:29:44;;;;;;;7.97;5.00;;;14.40;99.90;;;;;;4975091;28;20559;-71
2021/10/25 15:32:11;;;;;;;4.47;3.63;;;14.30;99.90;;;;;;4974545;28;20505;-71
2021/10/25 15:34:40;;;;;;;12.90;4.23;;;14.30;99.90;;;;;;4975194;28;20758;-71
2021/10/25 15:37:05;;;;;;;8.07;4.33;;;14.30;99.90;;;;;;4975056;28;20546;-71
2021/10/25 15:39:31;;;;;;;4.97;4.00;;;14.20;99.90;;;;;;4974899;28;20534;-71
2021/10/25 15:41:57;;;;;;;6.93;4.70;;;14.20;99.90;;;;;;4974826;28;20227;-70
2021/10/25 15:44:22;;;;;;;9.77;4.60;;;14.10;99.90;;;;;;4974733;28;20176;-71
2021/10/25 15:46:48;;;;;;;5.13;4.63;;;14.00;99.90;;;;;;4975062;28;20608;-70
2021/10/25 15:49:13;;;;;;;7.03;4.00;;;14.00;99.90;;;;;;4974875;28;20235;-69
2021/10/25 15:51:39;;;;;;;6.50;5.17;;;13.90;99.90;;;;;;4974783;28;20207;-71
2021/10/25 15:54:05;;;;;;;7.87;5.47;;;13.90;99.90;;;;;;4974948;28;20184;-70
2021/10/25 15:56:32;;;;;;;6.10;5.20;;;13.80;99.90;;;;;;4974860;28;20208;-70
2021/10/25 15:58:58;;;;;;;13.57;5.77;;;13.70;99.90;;;;;;4973769;28;20437;-70
2021/10/25 16:01:23;;;;;;;6.73;4.87;;;13.70;99.90;;;;;;4973126;28;20439;-70
2021/10/25 16:03:49;;;;;;;11.10;4.97;;;13.60;99.90;;;;;;4973149;28;20172;-72
2021/10/25 16:06:14;;;;;;;7.33;4.87;;;13.40;99.90;;;;;;4974521;28;20825;-71
2021/10/25 16:08:40;;;;;;;5.93;4.13;;;13.30;99.90;;;;;;4974774;28;20180;-70
2021/10/25 16:11:06;;;;;;;6.83;5.03;;;13.20;99.90;;;;;;4973398;28;20196;-71
2021/10/25 16:13:32;;;;;;;8.77;5.30;;;13.10;99.90;;;;;;4973932;28;20266;-71
2021/10/25 16:15:59;;;;;;;13.20;4.70;;;13.00;99.90;;;;;;4974492;28;20411;-70
2021/10/25 16:18:24;;;;;;;10.00;5.03;;;12.90;99.90;;;;;;4974078;28;20200;-71
2021/10/25 16:20:51;;;;;;;6.20;4.63;;;12.80;99.90;;;;;;4974474;28;20432;-71
2021/10/25 16:23:17;;;;;;;7.23;5.20;;;12.60;99.90;;;;;;4973673;28;20586;-71
2021/10/25 16:25:46;;;;;;;13.87;5.77;;;12.50;99.90;;;;;;4974427;28;20419;-71
2021/10/25 16:28:11;;;;;;;5.97;5.17;;;12.40;99.90;;;;;;4974001;28;20414;-70
2021/10/25 16:30:37;;;;;;;8.00;4.50;;;12.30;99.90;;;;;;4973252;28;20420;-71
2021/10/25 16:33:03;;;;;;;8.80;5.10;;;12.20;99.90;;;;;;4974069;28;20188;-70
2021/10/25 16:35:29;;;;;;;11.90;5.13;;;12.10;99.90;;;;;;4973655;28;20188;-72
2021/10/25 16:37:55;;;;;;;10.33;5.97;;;12.10;99.90;;;;;;4972508;28;20494;-73
2021/10/25 16:40:21;;;;;;;11.27;5.57;;;11.90;99.90;;;;;;4973305;28;20999;-72
2021/10/25 16:42:46;;;;;;;9.13;4.87;;;11.90;99.90;;;;;;4973444;28;20196;-72
2021/10/25 16:45:12;;;;;;;19.20;5.67;;;11.80;99.90;;;;;;4973235;28;20187;-72
2021/10/25 16:47:40;;;;;;;10.70;7.20;;;11.80;99.90;;;;;;4972399;28;20315;-72
2021/10/25 16:50:06;;;;;;;8.50;5.13;;;11.70;99.90;;;;;;4972057;28;20180;-72
2021/10/25 16:52:43;;;;;;;9.90;5.93;;;11.60;99.90;;;;;;4970587;28;20944;-71
2021/10/25 17:09:16;;;;;;;11.57;7.10;;;11.10;99.90;;;;;;4952497;28;20996;-72
2021/10/25 17:11:41;;;;;;;14.83;7.03;;;11.00;99.90;;;;;;4973221;28;20855;-73
2021/10/25 17:14:07;;;;;;;24.77;9.63;;;11.00;99.90;;;;;;4971542;28;20519;-72
2021/10/25 17:16:33;;;;;;;14.27;8.60;;;10.90;99.90;;;;;;4972977;28;20215;-72
2021/10/25 17:18:58;;;;;;;16.93;9.87;;;10.90;99.90;;;;;;4973198;28;20211;-72
2021/10/25 17:21:27;;;;;;;13.47;8.30;;;10.90;99.90;;;;;;4972455;28;20467;-72
2021/10/25 17:23:54;;;;;;;16.07;9.03;;;10.80;99.90;;;;;;4972867;28;20172;-72
2021/10/25 17:26:20;;;;;;;12.60;7.50;;;10.70;99.90;;;;;;4972967;28;20430;-72
2021/10/25 17:28:45;;;;;;;16.03;9.07;;;10.70;99.90;;;;;;4973075;28;20415;-73
2021/10/25 17:31:11;;;;;;;14.90;8.27;;;10.60;99.90;;;;;;4972560;28;20459;-72
2021/10/25 17:33:36;;;;;;;17.47;9.80;;;10.60;99.90;;;;;;4972626;28;20175;-73
2021/10/25 17:36:02;;;;;;;11.30;7.30;;;10.40;99.90;;;;;;4972229;28;20217;-72
2021/10/25 17:38:28;;;;;;;15.20;8.10;;;10.40;99.90;;;;;;4972767;28;20214;-71
2021/10/25 17:41:00;;;;;;;12.87;8.80;;;10.40;99.90;;;;;;4972891;28;20439;-72
2021/10/25 17:43:25;;;;;;;13.70;7.93;;;10.30;99.90;;;;;;4971723;28;20164;-72
2021/10/25 17:45:56;;;;;;;14.00;7.00;;;10.20;99.90;;;;;;4973005;28;20426;-72
2021/10/25 17:48:22;;;;;;;14.30;7.40;;;10.10;99.90;;;;;;4972487;28;20180;-73
2021/10/25 17:50:50;;;;;;;13.30;7.60;;;9.90;99.90;;;;;;4972784;28;20921;-73
2021/10/25 17:53:20;;;;;;;11.00;7.93;;;9.90;99.90;;;;;;4972202;28;20415;-74
2021/10/25 17:55:47;;;;;;;15.30;9.43;;;9.70;99.90;;;;;;4971819;28;20445;-71
2021/10/25 17:58:15;;;;;;;14.70;8.20;;;9.60;99.90;;;;;;4972147;28;20462;-71
2021/10/25 18:00:43;;;;;;;11.63;7.80;;;9.60;99.90;;;;;;4972751;28;20422;-72
2021/10/25 18:03:09;;;;;;;14.97;7.37;;;9.50;99.90;;;;;;4970922;28;20418;-72
2021/10/25 18:05:35;;;;;;;8.50;6.33;;;9.40;99.90;;;;;;4963084;28;20473;-72
2021/10/25 18:08:03;;;;;;;8.83;6.60;;;9.30;99.90;;;;;;4964214;28;20276;-72
2021/10/25 18:10:28;;;;;;;8.17;5.63;;;9.30;99.90;;;;;;4970971;28;20479;-72
2021/10/25 18:12:54;;;;;;;6.30;5.67;;;9.20;99.90;;;;;;4971835;28;20457;-72
2021/10/25 18:15:20;;;;;;;8.47;5.90;;;9.10;99.90;;;;;;4970392;28;20231;-73
2021/10/25 18:17:45;;;;;;;9.00;4.83;;;9.00;99.90;;;;;;4971832;28;20221;-73
2021/10/25 18:20:11;;;;;;;8.93;5.57;;;8.90;99.90;;;;;;4971718;28;20464;-74
2021/10/25 18:22:38;;;;;;;5.43;4.77;;;8.90;99.90;;;;;;4971727;28;20931;-73
2021/10/25 18:25:05;;;;;;;6.20;5.13;;;8.80;99.90;;;;;;4971707;28;20229;-73
2021/10/25 18:27:31;;;;;;;8.10;4.50;;;8.70;99.90;;;;;;4961140;28;20548;-72
2021/10/25 18:29:57;;;;;;;6.00;4.40;;;8.70;99.90;;;;;;4970880;28;20480;-72
2021/10/25 18:32:23;;;;;;;6.37;4.03;;;8.60;99.90;;;;;;4971153;28;20473;-72
2021/10/25 18:34:50;;;;;;;8.43;4.90;;;8.50;99.90;;;;;;4974613;28;20234;-72
2021/10/25 18:37:16;;;;;;;5.23;3.90;;;8.50;99.90;;;;;;4973012;28;20219;-73
2021/10/25 18:39:41;;;;;;;11.53;5.70;;;8.40;99.90;;;;;;4965992;28;20457;-73
2021/10/25 18:42:07;;;;;;;8.20;4.83;;;8.30;99.90;;;;;;4974624;28;20526;-73
2021/10/25 18:44:34;;;;;;;6.83;4.90;;;8.30;99.90;;;;;;4975383;28;20219;-73
2021/10/25 18:47:01;;;;;;;5.73;3.90;;;8.20;99.90;;;;;;4975619;28;20209;-72
2021/10/25 18:49:27;;;;;;;9.17;5.47;;;8.20;99.90;;;;;;4973852;28;20423;-73
2021/10/25 18:51:52;;;;;;;8.40;5.20;;;8.10;99.90;;;;;;4975397;28;20456;-73
2021/10/25 18:54:18;;;;;;;7.10;5.43;;;8.10;99.90;;;;;;4975081;28;20450;-73
2021/10/25 18:56:44;;;;;;;6.87;4.90;;;8.00;99.90;;;;;;4969522;28;20226;-74